sensor_id;sensor_type;location;lat;lon;timestamp;P1;durP1;ratioP1;P2;durP2;ratioP2
9413;SDS011;4746;35.664;139.738;2022-08-27T00:12:05;13.85;;;12.85;;
9413;SDS011;4746;35.664;139.738;2022-08-27T00:14:34;13.07;;;12.05;;
9413;SDS011;4746;35.664;139.738;2022-08-27T00:17:04;12.45;;;11.45;;
9413;SDS011;4746;35.664;139.738;2022-08-27T00:19:32;12.73;;;11.63;;
9413;SDS011;4746;35.664;139.738;2022-08-27T00:22:01;12.93;;;11.73;;
9413;SDS011;4746;35.664;139.738;2022-08-27T00:24:30;13.13;;;12.13;;
9413;SDS011;4746;35.664;139.738;2022-08-27T00:26:58;12.70;;;11.60;;
9413;SDS011;4746;35.664;139.738;2022-08-27T00:29:26;12.85;;;11.75;;
9413;SDS011;4746;35.664;139.738;2022-08-27T00:31:53;12.45;;;11.43;;
9413;SDS011;4746;35.664;139.738;2022-08-27T00:34:24;13.30;;;12.23;;
9413;SDS011;4746;35.664;139.738;2022-08-27T00:36:52;13.45;;;12.35;;
9413;SDS011;4746;35.664;139.738;2022-08-27T00:39:20;12.30;;;11.27;;
9413;SDS011;4746;35.664;139.738;2022-08-27T00:41:48;12.98;;;11.88;;
9413;SDS011;4746;35.664;139.738;2022-08-27T00:44:15;12.13;;;11.18;;
9413;SDS011;4746;35.664;139.738;2022-08-27T00:46:49;12.63;;;11.60;;
9413;SDS011;4746;35.664;139.738;2022-08-27T00:52:28;12.63;;;11.70;;
9413;SDS011;4746;35.664;139.738;2022-08-27T00:55:32;12.77;;;11.57;;
9413;SDS011;4746;35.664;139.738;2022-08-27T00:58:17;11.93;;;10.73;;
9413;SDS011;4746;35.664;139.738;2022-08-27T01:01:17;10.00;;;9.20;;
9413;SDS011;4746;35.664;139.738;2022-08-27T01:03:53;10.43;;;9.45;;
9413;SDS011;4746;35.664;139.738;2022-08-27T01:06:28;10.65;;;9.57;;
9413;SDS011;4746;35.664;139.738;2022-08-27T01:09:06;9.85;;;8.85;;
9413;SDS011;4746;35.664;139.738;2022-08-27T01:11:39;9.85;;;9.00;;
9413;SDS011;4746;35.664;139.738;2022-08-27T01:14:08;9.60;;;8.73;;
9413;SDS011;4746;35.664;139.738;2022-08-27T01:16:37;12.70;;;11.70;;
9413;SDS011;4746;35.664;139.738;2022-08-27T01:19:29;15.27;;;11.35;;
9413;SDS011;4746;35.664;139.738;2022-08-27T01:25:25;13.82;;;12.40;;
9413;SDS011;4746;35.664;139.738;2022-08-27T01:27:58;13.77;;;12.25;;
9413;SDS011;4746;35.664;139.738;2022-08-27T01:30:28;14.43;;;13.05;;
9413;SDS011;4746;35.664;139.738;2022-08-27T01:32:56;14.18;;;12.02;;
9413;SDS011;4746;35.664;139.738;2022-08-27T01:35:24;14.18;;;12.77;;
9413;SDS011;4746;35.664;139.738;2022-08-27T01:37:52;13.50;;;12.05;;
9413;SDS011;4746;35.664;139.738;2022-08-27T01:40:20;16.25;;;12.55;;
9413;SDS011;4746;35.664;139.738;2022-08-27T01:42:52;13.13;;;11.93;;
9413;SDS011;4746;35.664;139.738;2022-08-27T01:45:24;13.05;;;11.85;;
9413;SDS011;4746;35.664;139.738;2022-08-27T01:47:57;12.55;;;11.45;;
9413;SDS011;4746;35.664;139.738;2022-08-27T01:50:31;12.55;;;11.38;;
9413;SDS011;4746;35.664;139.738;2022-08-27T01:53:05;13.02;;;11.68;;
9413;SDS011;4746;35.664;139.738;2022-08-27T01:55:43;14.82;;;12.45;;
9413;SDS011;4746;35.664;139.738;2022-08-27T01:58:12;12.68;;;11.38;;
9413;SDS011;4746;35.664;139.738;2022-08-27T02:00:42;14.70;;;10.68;;
9413;SDS011;4746;35.664;139.738;2022-08-27T02:03:15;14.90;;;12.77;;
9413;SDS011;4746;35.664;139.738;2022-08-27T02:05:44;13.77;;;11.77;;
9413;SDS011;4746;35.664;139.738;2022-08-27T02:08:14;9.68;;;8.70;;
9413;SDS011;4746;35.664;139.738;2022-08-27T02:10:44;9.75;;;7.75;;
9413;SDS011;4746;35.664;139.738;2022-08-27T02:13:13;11.38;;;7.70;;
9413;SDS011;4746;35.664;139.738;2022-08-27T02:15:42;8.50;;;7.72;;
9413;SDS011;4746;35.664;139.738;2022-08-27T02:18:10;8.68;;;7.88;;
9413;SDS011;4746;35.664;139.738;2022-08-27T02:20:39;8.63;;;7.95;;
9413;SDS011;4746;35.664;139.738;2022-08-27T02:23:10;8.48;;;7.78;;
9413;SDS011;4746;35.664;139.738;2022-08-27T02:25:38;8.52;;;7.65;;
9413;SDS011;4746;35.664;139.738;2022-08-27T02:28:07;8.35;;;7.72;;
9413;SDS011;4746;35.664;139.738;2022-08-27T02:30:37;8.55;;;7.95;;
9413;SDS011;4746;35.664;139.738;2022-08-27T02:33:05;8.32;;;7.68;;
9413;SDS011;4746;35.664;139.738;2022-08-27T02:35:33;8.57;;;7.78;;
9413;SDS011;4746;35.664;139.738;2022-08-27T02:38:05;8.55;;;7.78;;
9413;SDS011;4746;35.664;139.738;2022-08-27T02:40:33;8.25;;;7.65;;
9413;SDS011;4746;35.664;139.738;2022-08-27T02:43:01;8.68;;;8.13;;
9413;SDS011;4746;35.664;139.738;2022-08-27T02:45:29;8.15;;;7.35;;
9413;SDS011;4746;35.664;139.738;2022-08-27T02:47:57;8.27;;;7.47;;
9413;SDS011;4746;35.664;139.738;2022-08-27T02:50:24;8.00;;;7.47;;
9413;SDS011;4746;35.664;139.738;2022-08-27T02:52:52;8.48;;;7.70;;
9413;SDS011;4746;35.664;139.738;2022-08-27T02:55:20;8.68;;;8.07;;
9413;SDS011;4746;35.664;139.738;2022-08-27T02:57:48;8.00;;;7.40;;
9413;SDS011;4746;35.664;139.738;2022-08-27T03:00:16;7.85;;;7.22;;
9413;SDS011;4746;35.664;139.738;2022-08-27T03:02:47;8.80;;;8.00;;
9413;SDS011;4746;35.664;139.738;2022-08-27T03:05:16;7.80;;;7.28;;
9413;SDS011;4746;35.664;139.738;2022-08-27T03:07:45;8.93;;;8.23;;
9413;SDS011;4746;35.664;139.738;2022-08-27T03:10:15;8.73;;;8.05;;
9413;SDS011;4746;35.664;139.738;2022-08-27T03:12:45;9.13;;;8.30;;
9413;SDS011;4746;35.664;139.738;2022-08-27T03:15:14;8.43;;;7.82;;
9413;SDS011;4746;35.664;139.738;2022-08-27T03:17:43;8.50;;;7.75;;
9413;SDS011;4746;35.664;139.738;2022-08-27T03:20:29;8.57;;;7.57;;
9413;SDS011;4746;35.664;139.738;2022-08-27T03:22:58;9.73;;;8.90;;
9413;SDS011;4746;35.664;139.738;2022-08-27T03:25:26;9.63;;;8.77;;
9413;SDS011;4746;35.664;139.738;2022-08-27T03:27:55;10.55;;;8.52;;
9413;SDS011;4746;35.664;139.738;2022-08-27T03:30:23;8.60;;;7.90;;
9413;SDS011;4746;35.664;139.738;2022-08-27T03:32:51;9.77;;;8.23;;
9413;SDS011;4746;35.664;139.738;2022-08-27T03:35:19;7.95;;;7.25;;
9413;SDS011;4746;35.664;139.738;2022-08-27T03:37:47;8.38;;;7.68;;
9413;SDS011;4746;35.664;139.738;2022-08-27T03:40:15;8.32;;;7.55;;
9413;SDS011;4746;35.664;139.738;2022-08-27T03:42:44;7.88;;;7.18;;
9413;SDS011;4746;35.664;139.738;2022-08-27T03:45:11;9.10;;;6.75;;
9413;SDS011;4746;35.664;139.738;2022-08-27T03:47:39;7.68;;;7.07;;
9413;SDS011;4746;35.664;139.738;2022-08-27T03:50:07;7.63;;;6.93;;
9413;SDS011;4746;35.664;139.738;2022-08-27T03:52:36;8.27;;;7.45;;
9413;SDS011;4746;35.664;139.738;2022-08-27T03:55:04;7.45;;;6.78;;
9413;SDS011;4746;35.664;139.738;2022-08-27T03:57:33;6.80;;;6.30;;
9413;SDS011;4746;35.664;139.738;2022-08-27T04:00:02;7.07;;;6.43;;
9413;SDS011;4746;35.664;139.738;2022-08-27T04:02:39;6.82;;;6.22;;
9413;SDS011;4746;35.664;139.738;2022-08-27T04:05:11;6.05;;;5.55;;
9413;SDS011;4746;35.664;139.738;2022-08-27T04:07:39;7.35;;;5.57;;
9413;SDS011;4746;35.664;139.738;2022-08-27T04:10:09;6.68;;;6.15;;
9413;SDS011;4746;35.664;139.738;2022-08-27T04:12:38;6.85;;;6.15;;
9413;SDS011;4746;35.664;139.738;2022-08-27T04:15:07;6.63;;;6.13;;
9413;SDS011;4746;35.664;139.738;2022-08-27T04:17:37;6.25;;;5.75;;
9413;SDS011;4746;35.664;139.738;2022-08-27T04:20:05;7.80;;;6.20;;
9413;SDS011;4746;35.664;139.738;2022-08-27T04:22:35;6.90;;;6.30;;
9413;SDS011;4746;35.664;139.738;2022-08-27T04:25:04;7.43;;;6.10;;
9413;SDS011;4746;35.664;139.738;2022-08-27T04:27:33;7.25;;;6.55;;
9413;SDS011;4746;35.664;139.738;2022-08-27T04:30:01;7.20;;;6.60;;
9413;SDS011;4746;35.664;139.738;2022-08-27T04:32:29;6.88;;;6.30;;
9413;SDS011;4746;35.664;139.738;2022-08-27T04:34:57;6.57;;;6.07;;
9413;SDS011;4746;35.664;139.738;2022-08-27T04:37:28;6.82;;;6.18;;
9413;SDS011;4746;35.664;139.738;2022-08-27T04:39:58;5.90;;;5.40;;
9413;SDS011;4746;35.664;139.738;2022-08-27T04:42:25;6.57;;;5.97;;
9413;SDS011;4746;35.664;139.738;2022-08-27T04:44:53;10.55;;;6.15;;
9413;SDS011;4746;35.664;139.738;2022-08-27T04:47:20;6.97;;;6.35;;
9413;SDS011;4746;35.664;139.738;2022-08-27T04:49:48;6.80;;;6.13;;
9413;SDS011;4746;35.664;139.738;2022-08-27T04:52:15;7.22;;;6.22;;
9413;SDS011;4746;35.664;139.738;2022-08-27T04:54:43;6.50;;;5.90;;
9413;SDS011;4746;35.664;139.738;2022-08-27T04:57:10;7.28;;;6.55;;
9413;SDS011;4746;35.664;139.738;2022-08-27T04:59:38;8.10;;;6.55;;
9413;SDS011;4746;35.664;139.738;2022-08-27T05:02:06;7.70;;;6.60;;
9413;SDS011;4746;35.664;139.738;2022-08-27T05:04:35;7.80;;;6.72;;
9413;SDS011;4746;35.664;139.738;2022-08-27T05:07:06;7.68;;;6.90;;
9413;SDS011;4746;35.664;139.738;2022-08-27T05:09:35;7.15;;;6.53;;
9413;SDS011;4746;35.664;139.738;2022-08-27T05:12:03;7.93;;;7.13;;
9413;SDS011;4746;35.664;139.738;2022-08-27T05:14:32;10.80;;;7.47;;
9413;SDS011;4746;35.664;139.738;2022-08-27T05:16:59;7.57;;;6.85;;
9413;SDS011;4746;35.664;139.738;2022-08-27T05:19:27;11.13;;;7.57;;
9413;SDS011;4746;35.664;139.738;2022-08-27T05:21:55;7.20;;;6.50;;
9413;SDS011;4746;35.664;139.738;2022-08-27T05:24:23;6.65;;;6.05;;
9413;SDS011;4746;35.664;139.738;2022-08-27T05:26:50;8.20;;;7.15;;
9413;SDS011;4746;35.664;139.738;2022-08-27T05:29:18;7.63;;;6.57;;
9413;SDS011;4746;35.664;139.738;2022-08-27T05:31:46;6.60;;;5.90;;
9413;SDS011;4746;35.664;139.738;2022-08-27T05:34:14;6.63;;;6.13;;
9413;SDS011;4746;35.664;139.738;2022-08-27T05:36:42;8.98;;;7.05;;
9413;SDS011;4746;35.664;139.738;2022-08-27T05:39:10;7.20;;;6.50;;
9413;SDS011;4746;35.664;139.738;2022-08-27T05:41:38;7.18;;;6.43;;
9413;SDS011;4746;35.664;139.738;2022-08-27T05:44:06;7.38;;;6.50;;
9413;SDS011;4746;35.664;139.738;2022-08-27T05:46:36;7.10;;;6.38;;
9413;SDS011;4746;35.664;139.738;2022-08-27T05:49:04;7.25;;;5.80;;
9413;SDS011;4746;35.664;139.738;2022-08-27T05:51:34;6.50;;;5.65;;
9413;SDS011;4746;35.664;139.738;2022-08-27T05:54:04;7.05;;;5.80;;
9413;SDS011;4746;35.664;139.738;2022-08-27T05:56:39;6.88;;;6.18;;
9413;SDS011;4746;35.664;139.738;2022-08-27T05:59:07;6.10;;;5.50;;
9413;SDS011;4746;35.664;139.738;2022-08-27T06:01:54;6.18;;;5.57;;
9413;SDS011;4746;35.664;139.738;2022-08-27T06:04:23;6.85;;;5.72;;
9413;SDS011;4746;35.664;139.738;2022-08-27T06:06:51;6.28;;;5.53;;
9413;SDS011;4746;35.664;139.738;2022-08-27T06:09:21;6.43;;;5.85;;
9413;SDS011;4746;35.664;139.738;2022-08-27T06:11:53;6.47;;;5.75;;
9413;SDS011;4746;35.664;139.738;2022-08-27T06:14:23;6.13;;;5.53;;
9413;SDS011;4746;35.664;139.738;2022-08-27T06:16:51;7.00;;;6.13;;
9413;SDS011;4746;35.664;139.738;2022-08-27T06:19:19;6.70;;;6.10;;
9413;SDS011;4746;35.664;139.738;2022-08-27T06:21:48;6.13;;;5.53;;
9413;SDS011;4746;35.664;139.738;2022-08-27T06:24:15;6.93;;;6.30;;
9413;SDS011;4746;35.664;139.738;2022-08-27T06:26:43;6.95;;;5.43;;
9413;SDS011;4746;35.664;139.738;2022-08-27T06:29:11;7.35;;;6.07;;
9413;SDS011;4746;35.664;139.738;2022-08-27T06:31:40;6.85;;;5.80;;
9413;SDS011;4746;35.664;139.738;2022-08-27T06:34:08;5.80;;;5.35;;
9413;SDS011;4746;35.664;139.738;2022-08-27T06:36:37;5.45;;;5.05;;
9413;SDS011;4746;35.664;139.738;2022-08-27T06:39:07;5.97;;;5.38;;
9413;SDS011;4746;35.664;139.738;2022-08-27T06:41:40;5.63;;;5.15;;
9413;SDS011;4746;35.664;139.738;2022-08-27T06:44:08;4.82;;;4.47;;
9413;SDS011;4746;35.664;139.738;2022-08-27T06:46:38;5.13;;;4.72;;
9413;SDS011;4746;35.664;139.738;2022-08-27T06:49:08;5.10;;;4.60;;
9413;SDS011;4746;35.664;139.738;2022-08-27T06:51:37;5.75;;;4.60;;
9413;SDS011;4746;35.664;139.738;2022-08-27T06:54:10;6.80;;;5.35;;
9413;SDS011;4746;35.664;139.738;2022-08-27T06:56:40;5.82;;;5.22;;
9413;SDS011;4746;35.664;139.738;2022-08-27T06:59:10;6.47;;;5.25;;
9413;SDS011;4746;35.664;139.738;2022-08-27T07:01:41;4.97;;;4.60;;
9413;SDS011;4746;35.664;139.738;2022-08-27T07:04:16;6.38;;;5.38;;
9413;SDS011;4746;35.664;139.738;2022-08-27T07:06:47;5.35;;;4.95;;
9413;SDS011;4746;35.664;139.738;2022-08-27T07:09:15;7.88;;;5.22;;
9413;SDS011;4746;35.664;139.738;2022-08-27T07:11:45;5.80;;;5.30;;
9413;SDS011;4746;35.664;139.738;2022-08-27T07:14:12;5.70;;;5.10;;
9413;SDS011;4746;35.664;139.738;2022-08-27T07:16:40;6.15;;;5.63;;
9413;SDS011;4746;35.664;139.738;2022-08-27T07:19:08;5.47;;;5.07;;
9413;SDS011;4746;35.664;139.738;2022-08-27T07:21:37;5.95;;;5.35;;
9413;SDS011;4746;35.664;139.738;2022-08-27T07:24:05;7.20;;;5.57;;
9413;SDS011;4746;35.664;139.738;2022-08-27T07:26:35;5.80;;;5.30;;
9413;SDS011;4746;35.664;139.738;2022-08-27T07:29:11;6.10;;;5.60;;
9413;SDS011;4746;35.664;139.738;2022-08-27T07:31:40;8.23;;;6.30;;
9413;SDS011;4746;35.664;139.738;2022-08-27T07:34:08;7.55;;;5.95;;
9413;SDS011;4746;35.664;139.738;2022-08-27T07:36:36;8.45;;;6.10;;
9413;SDS011;4746;35.664;139.738;2022-08-27T07:39:04;8.75;;;5.90;;
9413;SDS011;4746;35.664;139.738;2022-08-27T07:41:32;8.60;;;6.07;;
9413;SDS011;4746;35.664;139.738;2022-08-27T07:44:23;9.07;;;6.70;;
9413;SDS011;4746;35.664;139.738;2022-08-27T07:46:52;8.80;;;6.97;;
9413;SDS011;4746;35.664;139.738;2022-08-27T07:49:22;8.00;;;6.53;;
9413;SDS011;4746;35.664;139.738;2022-08-27T07:51:52;7.43;;;6.13;;
9413;SDS011;4746;35.664;139.738;2022-08-27T07:54:20;6.88;;;6.13;;
9413;SDS011;4746;35.664;139.738;2022-08-27T07:56:48;6.43;;;5.15;;
9413;SDS011;4746;35.664;139.738;2022-08-27T07:59:15;7.00;;;6.28;;
9413;SDS011;4746;35.664;139.738;2022-08-27T08:01:44;6.63;;;5.93;;
9413;SDS011;4746;35.664;139.738;2022-08-27T08:04:13;7.30;;;5.80;;
9413;SDS011;4746;35.664;139.738;2022-08-27T08:06:43;5.55;;;5.00;;
9413;SDS011;4746;35.664;139.738;2022-08-27T08:09:10;6.25;;;5.43;;
9413;SDS011;4746;35.664;139.738;2022-08-27T08:11:38;5.32;;;4.93;;
9413;SDS011;4746;35.664;139.738;2022-08-27T08:14:06;5.93;;;5.40;;
9413;SDS011;4746;35.664;139.738;2022-08-27T08:16:36;5.80;;;4.78;;
9413;SDS011;4746;35.664;139.738;2022-08-27T08:19:03;5.70;;;5.15;;
9413;SDS011;4746;35.664;139.738;2022-08-27T08:21:31;5.95;;;5.00;;
9413;SDS011;4746;35.664;139.738;2022-08-27T08:23:59;5.43;;;4.93;;
9413;SDS011;4746;35.664;139.738;2022-08-27T08:26:27;5.88;;;4.90;;
9413;SDS011;4746;35.664;139.738;2022-08-27T08:28:55;5.22;;;4.90;;
9413;SDS011;4746;35.664;139.738;2022-08-27T08:31:25;5.93;;;5.40;;
9413;SDS011;4746;35.664;139.738;2022-08-27T08:33:52;5.93;;;4.72;;
9413;SDS011;4746;35.664;139.738;2022-08-27T08:36:20;5.47;;;4.93;;
9413;SDS011;4746;35.664;139.738;2022-08-27T08:38:47;5.28;;;4.78;;
9413;SDS011;4746;35.664;139.738;2022-08-27T08:41:36;5.63;;;5.13;;
9413;SDS011;4746;35.664;139.738;2022-08-27T08:44:30;6.10;;;5.03;;
9413;SDS011;4746;35.664;139.738;2022-08-27T08:52:39;5.00;;;4.53;;
9413;SDS011;4746;35.664;139.738;2022-08-27T08:55:46;6.53;;;4.88;;
9413;SDS011;4746;35.664;139.738;2022-08-27T09:01:45;5.40;;;4.97;;
9413;SDS011;4746;35.664;139.738;2022-08-27T09:04:14;5.38;;;4.95;;
9413;SDS011;4746;35.664;139.738;2022-08-27T09:09:44;5.50;;;5.00;;
9413;SDS011;4746;35.664;139.738;2022-08-27T09:12:26;5.75;;;5.25;;
9413;SDS011;4746;35.664;139.738;2022-08-27T09:15:17;5.40;;;5.00;;
9413;SDS011;4746;35.664;139.738;2022-08-27T09:17:51;6.53;;;5.90;;
9413;SDS011;4746;35.664;139.738;2022-08-27T09:20:35;5.70;;;5.30;;
9413;SDS011;4746;35.664;139.738;2022-08-27T09:23:19;5.75;;;5.35;;
9413;SDS011;4746;35.664;139.738;2022-08-27T09:25:55;6.85;;;6.25;;
9413;SDS011;4746;35.664;139.738;2022-08-27T09:28:24;7.10;;;6.60;;
9413;SDS011;4746;35.664;139.738;2022-08-27T09:31:13;7.00;;;6.50;;
9413;SDS011;4746;35.664;139.738;2022-08-27T09:33:44;6.85;;;6.25;;
9413;SDS011;4746;35.664;139.738;2022-08-27T09:36:14;7.28;;;6.63;;
9413;SDS011;4746;35.664;139.738;2022-08-27T09:38:53;8.32;;;7.65;;
9413;SDS011;4746;35.664;139.738;2022-08-27T09:41:28;7.05;;;6.55;;
9413;SDS011;4746;35.664;139.738;2022-08-27T09:44:10;7.13;;;6.43;;
9413;SDS011;4746;35.664;139.738;2022-08-27T09:46:52;8.20;;;7.40;;
9413;SDS011;4746;35.664;139.738;2022-08-27T09:49:27;8.85;;;7.50;;
9413;SDS011;4746;35.664;139.738;2022-08-27T09:51:59;8.23;;;7.70;;
9413;SDS011;4746;35.664;139.738;2022-08-27T09:54:41;8.10;;;7.40;;
9413;SDS011;4746;35.664;139.738;2022-08-27T09:57:13;8.05;;;7.32;;
9413;SDS011;4746;35.664;139.738;2022-08-27T10:00:08;9.02;;;8.27;;
9413;SDS011;4746;35.664;139.738;2022-08-27T10:02:51;8.85;;;8.15;;
9413;SDS011;4746;35.664;139.738;2022-08-27T10:05:28;10.50;;;9.63;;
9413;SDS011;4746;35.664;139.738;2022-08-27T10:11:24;11.98;;;9.45;;
9413;SDS011;4746;35.664;139.738;2022-08-27T10:14:15;13.48;;;10.38;;
9413;SDS011;4746;35.664;139.738;2022-08-27T10:20:24;11.95;;;10.73;;
9413;SDS011;4746;35.664;139.738;2022-08-27T10:25:55;13.77;;;12.30;;
9413;SDS011;4746;35.664;139.738;2022-08-27T10:28:43;14.15;;;12.35;;
9413;SDS011;4746;35.664;139.738;2022-08-27T10:32:14;13.23;;;11.90;;
9413;SDS011;4746;35.664;139.738;2022-08-27T10:35:10;13.38;;;11.50;;
9413;SDS011;4746;35.664;139.738;2022-08-27T10:55:39;13.80;;;12.43;;
9413;SDS011;4746;35.664;139.738;2022-08-27T11:06:58;14.98;;;12.60;;
9413;SDS011;4746;35.664;139.738;2022-08-27T11:09:46;15.90;;;12.20;;
9413;SDS011;4746;35.664;139.738;2022-08-27T11:12:27;13.90;;;11.80;;
9413;SDS011;4746;35.664;139.738;2022-08-27T11:15:10;14.00;;;12.38;;
9413;SDS011;4746;35.664;139.738;2022-08-27T11:21:03;15.18;;;13.05;;
9413;SDS011;4746;35.664;139.738;2022-08-27T11:23:44;14.90;;;13.20;;
9413;SDS011;4746;35.664;139.738;2022-08-27T11:26:22;14.57;;;13.05;;
9413;SDS011;4746;35.664;139.738;2022-08-27T11:28:51;19.00;;;13.80;;
9413;SDS011;4746;35.664;139.738;2022-08-27T11:34:45;13.38;;;12.00;;
9413;SDS011;4746;35.664;139.738;2022-08-27T11:40:09;13.88;;;12.02;;
9413;SDS011;4746;35.664;139.738;2022-08-27T11:43:19;14.25;;;12.75;;
9413;SDS011;4746;35.664;139.738;2022-08-27T11:45:55;13.18;;;11.93;;
9413;SDS011;4746;35.664;139.738;2022-08-27T11:48:33;14.30;;;12.65;;
9413;SDS011;4746;35.664;139.738;2022-08-27T11:51:12;15.25;;;12.40;;
9413;SDS011;4746;35.664;139.738;2022-08-27T11:54:08;14.43;;;11.85;;
9413;SDS011;4746;35.664;139.738;2022-08-27T11:56:51;13.80;;;11.20;;
9413;SDS011;4746;35.664;139.738;2022-08-27T12:01:53;12.68;;;11.43;;
9413;SDS011;4746;35.664;139.738;2022-08-27T12:04:36;12.57;;;11.38;;
9413;SDS011;4746;35.664;139.738;2022-08-27T12:12:45;18.02;;;12.57;;
9413;SDS011;4746;35.664;139.738;2022-08-27T12:15:33;16.13;;;10.98;;
9413;SDS011;4746;35.664;139.738;2022-08-27T12:18:33;13.40;;;10.77;;
9413;SDS011;4746;35.664;139.738;2022-08-27T12:27:14;11.20;;;10.15;;
9413;SDS011;4746;35.664;139.738;2022-08-27T12:30:05;12.38;;;11.07;;
9413;SDS011;4746;35.664;139.738;2022-08-27T12:32:40;11.57;;;10.48;;
9413;SDS011;4746;35.664;139.738;2022-08-27T12:35:13;12.88;;;11.50;;
9413;SDS011;4746;35.664;139.738;2022-08-27T12:37:53;11.50;;;10.13;;
9413;SDS011;4746;35.664;139.738;2022-08-27T12:40:50;10.85;;;9.85;;
9413;SDS011;4746;35.664;139.738;2022-08-27T12:43:28;11.02;;;10.00;;
9413;SDS011;4746;35.664;139.738;2022-08-27T12:48:41;10.57;;;9.18;;
9413;SDS011;4746;35.664;139.738;2022-08-27T12:57:11;9.68;;;8.68;;
9413;SDS011;4746;35.664;139.738;2022-08-27T12:59:47;8.70;;;8.00;;
9413;SDS011;4746;35.664;139.738;2022-08-27T13:05:51;9.25;;;8.45;;
9413;SDS011;4746;35.664;139.738;2022-08-27T13:08:32;9.43;;;8.63;;
9413;SDS011;4746;35.664;139.738;2022-08-27T13:11:09;8.73;;;8.10;;
9413;SDS011;4746;35.664;139.738;2022-08-27T13:14:02;9.23;;;8.38;;
9413;SDS011;4746;35.664;139.738;2022-08-27T13:16:33;8.68;;;7.97;;
9413;SDS011;4746;35.664;139.738;2022-08-27T13:19:11;8.57;;;7.75;;
9413;SDS011;4746;35.664;139.738;2022-08-27T13:21:56;9.15;;;8.45;;
9413;SDS011;4746;35.664;139.738;2022-08-27T13:24:33;9.55;;;8.75;;
9413;SDS011;4746;35.664;139.738;2022-08-27T13:27:14;8.80;;;8.07;;
9413;SDS011;4746;35.664;139.738;2022-08-27T13:29:48;9.35;;;8.35;;
9413;SDS011;4746;35.664;139.738;2022-08-27T13:32:16;9.07;;;8.27;;
9413;SDS011;4746;35.664;139.738;2022-08-27T13:34:44;8.75;;;8.02;;
9413;SDS011;4746;35.664;139.738;2022-08-27T13:37:34;8.98;;;8.18;;
9413;SDS011;4746;35.664;139.738;2022-08-27T13:40:23;8.85;;;8.15;;
9413;SDS011;4746;35.664;139.738;2022-08-27T13:43:36;9.35;;;8.63;;
9413;SDS011;4746;35.664;139.738;2022-08-27T13:46:11;8.73;;;8.00;;
9413;SDS011;4746;35.664;139.738;2022-08-27T13:48:45;9.05;;;8.23;;
9413;SDS011;4746;35.664;139.738;2022-08-27T13:51:33;9.35;;;8.50;;
9413;SDS011;4746;35.664;139.738;2022-08-27T13:54:02;9.95;;;8.88;;
9413;SDS011;4746;35.664;139.738;2022-08-27T13:56:59;8.98;;;8.27;;
9413;SDS011;4746;35.664;139.738;2022-08-27T13:59:38;9.35;;;8.63;;
9413;SDS011;4746;35.664;139.738;2022-08-27T14:07:37;9.20;;;8.50;;
9413;SDS011;4746;35.664;139.738;2022-08-27T14:13:06;9.27;;;8.57;;
9413;SDS011;4746;35.664;139.738;2022-08-27T14:15:50;8.25;;;7.55;;
9413;SDS011;4746;35.664;139.738;2022-08-27T14:18:26;8.40;;;7.80;;
9413;SDS011;4746;35.664;139.738;2022-08-27T14:21:00;9.45;;;8.65;;
9413;SDS011;4746;35.664;139.738;2022-08-27T14:23:29;9.05;;;8.25;;
9413;SDS011;4746;35.664;139.738;2022-08-27T14:25:58;8.35;;;7.65;;
9413;SDS011;4746;35.664;139.738;2022-08-27T14:28:27;8.90;;;8.13;;
9413;SDS011;4746;35.664;139.738;2022-08-27T14:30:56;9.63;;;8.07;;
9413;SDS011;4746;35.664;139.738;2022-08-27T14:33:23;7.90;;;7.30;;
9413;SDS011;4746;35.664;139.738;2022-08-27T14:35:51;9.07;;;8.38;;
9413;SDS011;4746;35.664;139.738;2022-08-27T14:38:22;9.07;;;8.27;;
9413;SDS011;4746;35.664;139.738;2022-08-27T14:40:54;9.07;;;8.27;;
9413;SDS011;4746;35.664;139.738;2022-08-27T14:43:23;8.20;;;7.47;;
9413;SDS011;4746;35.664;139.738;2022-08-27T14:45:50;9.20;;;8.35;;
9413;SDS011;4746;35.664;139.738;2022-08-27T14:48:26;9.38;;;8.68;;
9413;SDS011;4746;35.664;139.738;2022-08-27T14:50:59;9.82;;;8.82;;
9413;SDS011;4746;35.664;139.738;2022-08-27T14:53:35;9.02;;;8.32;;
9413;SDS011;4746;35.664;139.738;2022-08-27T14:56:02;9.70;;;8.68;;
9413;SDS011;4746;35.664;139.738;2022-08-27T14:58:30;9.27;;;8.55;;
9413;SDS011;4746;35.664;139.738;2022-08-27T15:00:58;9.10;;;8.27;;
9413;SDS011;4746;35.664;139.738;2022-08-27T15:03:27;9.75;;;8.95;;
9413;SDS011;4746;35.664;139.738;2022-08-27T15:05:56;9.55;;;8.75;;
9413;SDS011;4746;35.664;139.738;2022-08-27T15:08:23;9.70;;;9.00;;
9413;SDS011;4746;35.664;139.738;2022-08-27T15:10:51;9.90;;;8.95;;
9413;SDS011;4746;35.664;139.738;2022-08-27T15:13:18;10.55;;;9.55;;
9413;SDS011;4746;35.664;139.738;2022-08-27T15:15:47;9.68;;;8.85;;
9413;SDS011;4746;35.664;139.738;2022-08-27T15:18:15;10.32;;;9.32;;
9413;SDS011;4746;35.664;139.738;2022-08-27T15:20:42;9.98;;;9.18;;
9413;SDS011;4746;35.664;139.738;2022-08-27T15:23:10;10.50;;;9.60;;
9413;SDS011;4746;35.664;139.738;2022-08-27T15:25:40;11.23;;;10.10;;
9413;SDS011;4746;35.664;139.738;2022-08-27T15:28:11;10.65;;;9.75;;
9413;SDS011;4746;35.664;139.738;2022-08-27T15:30:38;10.50;;;9.80;;
9413;SDS011;4746;35.664;139.738;2022-08-27T15:33:07;10.85;;;9.95;;
9413;SDS011;4746;35.664;139.738;2022-08-27T15:35:34;11.35;;;10.25;;
9413;SDS011;4746;35.664;139.738;2022-08-27T15:38:02;11.02;;;10.10;;
9413;SDS011;4746;35.664;139.738;2022-08-27T15:40:30;9.90;;;9.10;;
9413;SDS011;4746;35.664;139.738;2022-08-27T15:43:03;10.82;;;9.73;;
9413;SDS011;4746;35.664;139.738;2022-08-27T15:45:33;9.98;;;9.18;;
9413;SDS011;4746;35.664;139.738;2022-08-27T15:48:01;10.50;;;9.30;;
9413;SDS011;4746;35.664;139.738;2022-08-27T15:50:29;10.43;;;9.52;;
9413;SDS011;4746;35.664;139.738;2022-08-27T15:52:59;10.20;;;9.30;;
9413;SDS011;4746;35.664;139.738;2022-08-27T15:55:33;10.68;;;9.73;;
9413;SDS011;4746;35.664;139.738;2022-08-27T15:58:05;10.35;;;9.30;;
9413;SDS011;4746;35.664;139.738;2022-08-27T16:00:35;10.07;;;9.27;;
9413;SDS011;4746;35.664;139.738;2022-08-27T16:03:04;9.52;;;8.73;;
9413;SDS011;4746;35.664;139.738;2022-08-27T16:05:37;9.98;;;9.23;;
9413;SDS011;4746;35.664;139.738;2022-08-27T16:08:07;10.32;;;9.52;;
9413;SDS011;4746;35.664;139.738;2022-08-27T16:10:36;9.30;;;8.48;;
9413;SDS011;4746;35.664;139.738;2022-08-27T16:13:04;9.55;;;8.75;;
9413;SDS011;4746;35.664;139.738;2022-08-27T16:15:31;10.43;;;9.45;;
9413;SDS011;4746;35.664;139.738;2022-08-27T16:18:06;10.38;;;9.48;;
9413;SDS011;4746;35.664;139.738;2022-08-27T16:20:35;10.05;;;9.20;;
9413;SDS011;4746;35.664;139.738;2022-08-27T16:23:02;9.63;;;8.85;;
9413;SDS011;4746;35.664;139.738;2022-08-27T16:25:30;9.98;;;9.18;;
9413;SDS011;4746;35.664;139.738;2022-08-27T16:28:00;9.50;;;8.70;;
9413;SDS011;4746;35.664;139.738;2022-08-27T16:30:28;10.07;;;9.20;;
9413;SDS011;4746;35.664;139.738;2022-08-27T16:32:56;9.45;;;8.65;;
9413;SDS011;4746;35.664;139.738;2022-08-27T16:35:23;9.50;;;8.75;;
9413;SDS011;4746;35.664;139.738;2022-08-27T16:37:51;10.23;;;9.43;;
9413;SDS011;4746;35.664;139.738;2022-08-27T16:40:19;9.93;;;9.10;;
9413;SDS011;4746;35.664;139.738;2022-08-27T16:42:47;10.18;;;9.27;;
9413;SDS011;4746;35.664;139.738;2022-08-27T16:45:17;9.93;;;8.95;;
9413;SDS011;4746;35.664;139.738;2022-08-27T16:47:48;10.20;;;9.40;;
9413;SDS011;4746;35.664;139.738;2022-08-27T16:50:34;10.27;;;9.18;;
9413;SDS011;4746;35.664;139.738;2022-08-27T16:53:04;10.57;;;9.65;;
9413;SDS011;4746;35.664;139.738;2022-08-27T16:55:37;9.40;;;8.50;;
9413;SDS011;4746;35.664;139.738;2022-08-27T16:58:08;10.48;;;8.70;;
9413;SDS011;4746;35.664;139.738;2022-08-27T17:00:45;9.07;;;8.27;;
9413;SDS011;4746;35.664;139.738;2022-08-27T17:03:17;9.57;;;8.70;;